Airfield :
LOGIN :

Register | Disclaimer

   EN    FR    IT 

 










Legend :    VFR   Marginal VFR   IFR   Intensive IFR   Very Intensive IFR
Visi :
Ceiling :
>= 8 km
>= 3000ft
5 to 8 km
1000 to 3000 ft
1500m to 5 km
500 to 1000 ft
800 to 1500m
200 to 500 ft
< 800m
< 200 ft
Symbols :   Thunderstorms  Fog  Heavy snow  Heavy precipitations  Wind > 20 kt
SIGMETs :     Misc.  Thunderstorms  Icing  Turbulence  Mountain Waves  Volcanic Ashes






- Airport Elevation : 270 ft
- IATA code : OXF


EGTK - Oxford (Kidlington)

CURRENT METAR :
  • 191520Z 22010KT 9000 -RA SCT013 SCT018 BKN022 08/08 Q1016

EXPIRED METARs :
  • 191450Z 21011KT 9000 -RA SCT011 BKN015 BKN019 07/07 Q1017
  • 191420Z 20010KT 7000 -RA SCT014 BKN018 BKN022 07/07 Q1017
  • 191350Z 20010KT 8000 -DZ SCT015 BKN018 OVC031 07/07 Q1018
  • 191320Z 20010KT 8000 -DZ SCT011 BKN017 06/06 Q1019
  • 191250Z 19008KT 160V220 9999 -RADZ OVC015 06/06 Q1019

TAF TAF EGTK
Valid from the 19 at 15:00 until the 19 at 23:00 UTC


191412Z 1915/1923 21012KT 9999 SCT018 BKN030
TEMPO 1915/1917 8000 -RA BKN012
PROB30
TEMPO 1915/1917 4000 RA BKN008
PROB30
TEMPO 1917/1923 8000 -RA BKN012
TEMPO 1919/1923 22015G25KT



MET'MAP, your aeronautical weather chart ! - Copyright ORBIFLY December 2007 - Disclaimer

ORBIFLY MET'MAP TEAM :

Programming & Development : Alexandra Zaïnal
Concept & original design : Baudouin d'Aumeries
Assistance for programming : Marc-Olivier Méhu
Technical & hardware support : Manuel Goepfert

Contact : metmap@orbifly.com




SOURCES & CREDITS :

   NOAA